sensor_id;sensor_type;location;lat;lon;timestamp;P1;durP1;ratioP1;P2;durP2;ratioP2
1436;SDS011;712;51.026;13.792;2023-07-29T00:00:13;4.80;;;1.80;;
1436;SDS011;712;51.026;13.792;2023-07-29T00:02:38;3.20;;;1.30;;
1436;SDS011;712;51.026;13.792;2023-07-29T00:05:03;4.13;;;1.60;;
1436;SDS011;712;51.026;13.792;2023-07-29T00:07:28;3.80;;;1.63;;
1436;SDS011;712;51.026;13.792;2023-07-29T00:09:54;3.30;;;1.40;;
1436;SDS011;712;51.026;13.792;2023-07-29T00:12:19;3.97;;;1.60;;
1436;SDS011;712;51.026;13.792;2023-07-29T00:14:44;3.80;;;1.70;;
1436;SDS011;712;51.026;13.792;2023-07-29T00:17:09;3.80;;;1.67;;
1436;SDS011;712;51.026;13.792;2023-07-29T00:19:34;3.73;;;1.70;;
1436;SDS011;712;51.026;13.792;2023-07-29T00:21:59;4.07;;;1.80;;
1436;SDS011;712;51.026;13.792;2023-07-29T00:24:25;3.47;;;1.40;;
1436;SDS011;712;51.026;13.792;2023-07-29T00:26:50;3.53;;;1.55;;
1436;SDS011;712;51.026;13.792;2023-07-29T00:29:15;3.37;;;1.43;;
1436;SDS011;712;51.026;13.792;2023-07-29T00:31:40;3.67;;;1.57;;
1436;SDS011;712;51.026;13.792;2023-07-29T00:34:05;4.32;;;1.70;;
1436;SDS011;712;51.026;13.792;2023-07-29T00:36:30;4.40;;;1.50;;
1436;SDS011;712;51.026;13.792;2023-07-29T00:38:55;3.73;;;1.70;;
1436;SDS011;712;51.026;13.792;2023-07-29T00:41:22;3.35;;;1.50;;
1436;SDS011;712;51.026;13.792;2023-07-29T00:43:47;3.42;;;1.50;;
1436;SDS011;712;51.026;13.792;2023-07-29T00:46:12;3.28;;;1.48;;
1436;SDS011;712;51.026;13.792;2023-07-29T00:48:37;3.17;;;1.33;;
1436;SDS011;712;51.026;13.792;2023-07-29T00:51:03;3.35;;;1.48;;
1436;SDS011;712;51.026;13.792;2023-07-29T00:53:28;3.87;;;1.60;;
1436;SDS011;712;51.026;13.792;2023-07-29T00:55:53;4.70;;;1.50;;
1436;SDS011;712;51.026;13.792;2023-07-29T00:58:19;4.85;;;1.80;;
1436;SDS011;712;51.026;13.792;2023-07-29T01:00:44;3.63;;;1.50;;
1436;SDS011;712;51.026;13.792;2023-07-29T01:03:09;3.45;;;1.50;;
1436;SDS011;712;51.026;13.792;2023-07-29T01:08:21;3.58;;;1.60;;
1436;SDS011;712;51.026;13.792;2023-07-29T01:16:00;3.53;;;1.42;;
1436;SDS011;712;51.026;13.792;2023-07-29T01:18:26;2.70;;;1.30;;
1436;SDS011;712;51.026;13.792;2023-07-29T01:20:58;3.65;;;1.70;;
1436;SDS011;712;51.026;13.792;2023-07-29T01:23:24;3.38;;;1.40;;
1436;SDS011;712;51.026;13.792;2023-07-29T01:25:50;3.75;;;1.50;;
1436;SDS011;712;51.026;13.792;2023-07-29T01:28:15;2.90;;;1.25;;
1436;SDS011;712;51.026;13.792;2023-07-29T01:30:40;4.40;;;1.40;;
1436;SDS011;712;51.026;13.792;2023-07-29T01:33:16;2.70;;;1.20;;
1436;SDS011;712;51.026;13.792;2023-07-29T01:35:45;3.08;;;1.48;;
1436;SDS011;712;51.026;13.792;2023-07-29T01:38:16;4.30;;;1.38;;
1436;SDS011;712;51.026;13.792;2023-07-29T01:40:43;5.03;;;1.60;;
1436;SDS011;712;51.026;13.792;2023-07-29T01:43:08;4.93;;;1.40;;
1436;SDS011;712;51.026;13.792;2023-07-29T01:45:34;3.05;;;1.40;;
1436;SDS011;712;51.026;13.792;2023-07-29T01:48:03;4.18;;;1.40;;
1436;SDS011;712;51.026;13.792;2023-07-29T01:50:28;3.33;;;1.50;;
1436;SDS011;712;51.026;13.792;2023-07-29T01:52:53;3.40;;;1.52;;
1436;SDS011;712;51.026;13.792;2023-07-29T01:55:18;4.00;;;1.58;;
1436;SDS011;712;51.026;13.792;2023-07-29T01:57:44;3.67;;;1.47;;
1436;SDS011;712;51.026;13.792;2023-07-29T02:00:09;3.05;;;1.42;;
1436;SDS011;712;51.026;13.792;2023-07-29T02:02:35;3.85;;;1.55;;
1436;SDS011;712;51.026;13.792;2023-07-29T02:05:00;3.40;;;1.50;;
1436;SDS011;712;51.026;13.792;2023-07-29T02:07:25;4.13;;;1.63;;
1436;SDS011;712;51.026;13.792;2023-07-29T02:09:51;3.83;;;1.80;;
1436;SDS011;712;51.026;13.792;2023-07-29T02:12:16;4.78;;;1.60;;
1436;SDS011;712;51.026;13.792;2023-07-29T02:14:42;4.30;;;1.53;;
1436;SDS011;712;51.026;13.792;2023-07-29T02:17:07;4.40;;;1.73;;
1436;SDS011;712;51.026;13.792;2023-07-29T02:21:58;3.47;;;1.70;;
1436;SDS011;712;51.026;13.792;2023-07-29T02:24:23;3.75;;;1.63;;
1436;SDS011;712;51.026;13.792;2023-07-29T02:26:49;3.63;;;1.80;;
1436;SDS011;712;51.026;13.792;2023-07-29T02:29:14;3.63;;;1.47;;
1436;SDS011;712;51.026;13.792;2023-07-29T02:31:39;3.80;;;1.70;;
1436;SDS011;712;51.026;13.792;2023-07-29T02:34:04;3.83;;;1.83;;
1436;SDS011;712;51.026;13.792;2023-07-29T02:36:29;3.43;;;1.50;;
1436;SDS011;712;51.026;13.792;2023-07-29T02:38:55;4.32;;;1.70;;
1436;SDS011;712;51.026;13.792;2023-07-29T02:41:20;3.93;;;1.77;;
1436;SDS011;712;51.026;13.792;2023-07-29T02:43:49;4.70;;;1.83;;
1436;SDS011;712;51.026;13.792;2023-07-29T02:46:14;3.08;;;1.40;;
1436;SDS011;712;51.026;13.792;2023-07-29T02:48:39;4.03;;;1.80;;
1436;SDS011;712;51.026;13.792;2023-07-29T02:51:04;3.83;;;1.70;;
1436;SDS011;712;51.026;13.792;2023-07-29T02:53:29;5.43;;;1.60;;
1436;SDS011;712;51.026;13.792;2023-07-29T02:55:55;3.57;;;1.70;;
1436;SDS011;712;51.026;13.792;2023-07-29T02:58:20;4.20;;;1.70;;
1436;SDS011;712;51.026;13.792;2023-07-29T03:00:45;4.03;;;1.80;;
1436;SDS011;712;51.026;13.792;2023-07-29T03:03:12;4.15;;;1.52;;
1436;SDS011;712;51.026;13.792;2023-07-29T03:05:37;5.63;;;1.80;;
1436;SDS011;712;51.026;13.792;2023-07-29T03:08:03;3.75;;;1.80;;
1436;SDS011;712;51.026;13.792;2023-07-29T03:10:28;6.30;;;1.88;;
1436;SDS011;712;51.026;13.792;2023-07-29T03:12:54;4.50;;;2.00;;
1436;SDS011;712;51.026;13.792;2023-07-29T03:17:45;4.53;;;1.65;;
1436;SDS011;712;51.026;13.792;2023-07-29T03:20:11;4.10;;;1.83;;
1436;SDS011;712;51.026;13.792;2023-07-29T03:22:37;5.05;;;1.88;;
1436;SDS011;712;51.026;13.792;2023-07-29T03:25:02;4.57;;;1.70;;
1436;SDS011;712;51.026;13.792;2023-07-29T03:27:28;3.10;;;1.60;;
1436;SDS011;712;51.026;13.792;2023-07-29T03:29:53;4.68;;;1.70;;
1436;SDS011;712;51.026;13.792;2023-07-29T03:32:18;3.10;;;1.40;;
1436;SDS011;712;51.026;13.792;2023-07-29T03:34:43;3.47;;;1.58;;
1436;SDS011;712;51.026;13.792;2023-07-29T03:37:08;3.58;;;1.60;;
1436;SDS011;712;51.026;13.792;2023-07-29T03:39:33;3.15;;;1.45;;
1436;SDS011;712;51.026;13.792;2023-07-29T03:41:59;3.73;;;1.47;;
1436;SDS011;712;51.026;13.792;2023-07-29T03:44:24;3.37;;;1.43;;
1436;SDS011;712;51.026;13.792;2023-07-29T03:46:49;3.40;;;1.50;;
1436;SDS011;712;51.026;13.792;2023-07-29T03:49:14;3.60;;;1.23;;
1436;SDS011;712;51.026;13.792;2023-07-29T03:51:39;4.30;;;1.13;;
1436;SDS011;712;51.026;13.792;2023-07-29T03:54:04;3.10;;;1.23;;
1436;SDS011;712;51.026;13.792;2023-07-29T03:56:30;3.27;;;1.40;;
1436;SDS011;712;51.026;13.792;2023-07-29T03:59:02;2.60;;;1.20;;
1436;SDS011;712;51.026;13.792;2023-07-29T04:01:27;3.25;;;1.17;;
1436;SDS011;712;51.026;13.792;2023-07-29T04:03:52;3.35;;;1.45;;
1436;SDS011;712;51.026;13.792;2023-07-29T04:06:18;3.20;;;1.40;;
1436;SDS011;712;51.026;13.792;2023-07-29T04:08:43;3.07;;;1.30;;
1436;SDS011;712;51.026;13.792;2023-07-29T04:11:08;5.03;;;1.45;;
1436;SDS011;712;51.026;13.792;2023-07-29T04:13:33;4.90;;;1.35;;
1436;SDS011;712;51.026;13.792;2023-07-29T04:15:58;3.40;;;1.65;;
1436;SDS011;712;51.026;13.792;2023-07-29T04:18:24;3.30;;;1.43;;
1436;SDS011;712;51.026;13.792;2023-07-29T04:20:49;2.83;;;1.25;;
1436;SDS011;712;51.026;13.792;2023-07-29T04:23:14;3.10;;;1.42;;
1436;SDS011;712;51.026;13.792;2023-07-29T04:25:39;2.43;;;0.90;;
1436;SDS011;712;51.026;13.792;2023-07-29T04:28:04;3.20;;;1.30;;
1436;SDS011;712;51.026;13.792;2023-07-29T04:30:30;3.00;;;1.40;;
1436;SDS011;712;51.026;13.792;2023-07-29T04:32:55;3.43;;;1.30;;
1436;SDS011;712;51.026;13.792;2023-07-29T04:35:20;3.00;;;1.30;;
1436;SDS011;712;51.026;13.792;2023-07-29T04:37:45;3.33;;;1.30;;
1436;SDS011;712;51.026;13.792;2023-07-29T04:40:13;3.80;;;1.30;;
1436;SDS011;712;51.026;13.792;2023-07-29T04:42:38;2.97;;;1.30;;
1436;SDS011;712;51.026;13.792;2023-07-29T04:45:03;2.78;;;1.17;;
1436;SDS011;712;51.026;13.792;2023-07-29T04:47:28;2.90;;;1.20;;
1436;SDS011;712;51.026;13.792;2023-07-29T04:49:53;3.42;;;1.48;;
1436;SDS011;712;51.026;13.792;2023-07-29T04:52:19;3.03;;;1.40;;
1436;SDS011;712;51.026;13.792;2023-07-29T04:54:44;4.20;;;1.27;;
1436;SDS011;712;51.026;13.792;2023-07-29T04:57:09;2.95;;;1.23;;
1436;SDS011;712;51.026;13.792;2023-07-29T04:59:35;3.00;;;1.30;;
1436;SDS011;712;51.026;13.792;2023-07-29T05:02:00;1.93;;;0.93;;
1436;SDS011;712;51.026;13.792;2023-07-29T05:04:25;3.13;;;1.40;;
1436;SDS011;712;51.026;13.792;2023-07-29T05:06:51;3.00;;;1.20;;
1436;SDS011;712;51.026;13.792;2023-07-29T05:09:16;2.27;;;1.10;;
1436;SDS011;712;51.026;13.792;2023-07-29T05:11:42;3.83;;;1.20;;
1436;SDS011;712;51.026;13.792;2023-07-29T05:14:12;4.85;;;1.20;;
1436;SDS011;712;51.026;13.792;2023-07-29T05:19:03;4.47;;;1.40;;
1436;SDS011;712;51.026;13.792;2023-07-29T05:21:28;3.00;;;1.20;;
1436;SDS011;712;51.026;13.792;2023-07-29T05:23:53;2.13;;;1.00;;
1436;SDS011;712;51.026;13.792;2023-07-29T05:26:18;3.77;;;1.30;;
1436;SDS011;712;51.026;13.792;2023-07-29T05:28:43;5.07;;;1.20;;
1436;SDS011;712;51.026;13.792;2023-07-29T05:31:09;3.30;;;1.20;;
1436;SDS011;712;51.026;13.792;2023-07-29T05:33:34;2.30;;;1.10;;
1436;SDS011;712;51.026;13.792;2023-07-29T05:36:01;2.92;;;1.10;;
1436;SDS011;712;51.026;13.792;2023-07-29T05:38:26;2.80;;;1.27;;
1436;SDS011;712;51.026;13.792;2023-07-29T05:40:51;2.93;;;1.20;;
1436;SDS011;712;51.026;13.792;2023-07-29T05:43:16;3.37;;;1.03;;
1436;SDS011;712;51.026;13.792;2023-07-29T05:45:41;3.33;;;1.20;;
1436;SDS011;712;51.026;13.792;2023-07-29T05:48:07;2.77;;;1.13;;
1436;SDS011;712;51.026;13.792;2023-07-29T05:50:32;2.38;;;1.05;;
1436;SDS011;712;51.026;13.792;2023-07-29T05:52:57;3.42;;;0.90;;
1436;SDS011;712;51.026;13.792;2023-07-29T05:55:22;2.53;;;1.00;;
1436;SDS011;712;51.026;13.792;2023-07-29T05:57:47;2.10;;;1.00;;
1436;SDS011;712;51.026;13.792;2023-07-29T06:00:12;2.17;;;1.00;;
1436;SDS011;712;51.026;13.792;2023-07-29T06:02:38;2.13;;;0.83;;
1436;SDS011;712;51.026;13.792;2023-07-29T06:05:03;2.13;;;0.90;;
1436;SDS011;712;51.026;13.792;2023-07-29T06:09:55;1.42;;;0.60;;
1436;SDS011;712;51.026;13.792;2023-07-29T06:12:20;4.13;;;0.87;;
1436;SDS011;712;51.026;13.792;2023-07-29T06:14:46;2.20;;;0.80;;
1436;SDS011;712;51.026;13.792;2023-07-29T06:17:11;3.08;;;1.10;;
1436;SDS011;712;51.026;13.792;2023-07-29T06:22:01;2.42;;;0.90;;
1436;SDS011;712;51.026;13.792;2023-07-29T06:24:26;2.10;;;0.88;;
1436;SDS011;712;51.026;13.792;2023-07-29T06:26:52;2.63;;;0.80;;
1436;SDS011;712;51.026;13.792;2023-07-29T06:31:42;1.42;;;0.70;;
1436;SDS011;712;51.026;13.792;2023-07-29T06:34:07;2.97;;;0.83;;
1436;SDS011;712;51.026;13.792;2023-07-29T06:36:32;1.88;;;0.80;;
1436;SDS011;712;51.026;13.792;2023-07-29T06:41:22;2.03;;;0.88;;
1436;SDS011;712;51.026;13.792;2023-07-29T06:43:48;1.97;;;0.87;;
1436;SDS011;712;51.026;13.792;2023-07-29T06:46:13;2.03;;;0.90;;
1436;SDS011;712;51.026;13.792;2023-07-29T06:48:38;2.30;;;0.83;;
1436;SDS011;712;51.026;13.792;2023-07-29T06:53:28;1.88;;;0.88;;
1436;SDS011;712;51.026;13.792;2023-07-29T06:58:19;1.50;;;0.70;;
1436;SDS011;712;51.026;13.792;2023-07-29T07:00:44;2.25;;;0.90;;
1436;SDS011;712;51.026;13.792;2023-07-29T07:05:34;2.88;;;0.90;;
1436;SDS011;712;51.026;13.792;2023-07-29T07:07:59;2.55;;;0.90;;
1436;SDS011;712;51.026;13.792;2023-07-29T07:12:49;2.30;;;0.85;;
1436;SDS011;712;51.026;13.792;2023-07-29T07:15:14;2.33;;;0.90;;
1436;SDS011;712;51.026;13.792;2023-07-29T07:17:40;2.03;;;0.90;;
1436;SDS011;712;51.026;13.792;2023-07-29T07:22:30;2.42;;;0.90;;
1436;SDS011;712;51.026;13.792;2023-07-29T07:24:55;2.80;;;0.90;;
1436;SDS011;712;51.026;13.792;2023-07-29T07:29:45;2.92;;;0.90;;
1436;SDS011;712;51.026;13.792;2023-07-29T07:34:36;2.40;;;0.90;;
1436;SDS011;712;51.026;13.792;2023-07-29T07:37:01;2.17;;;0.90;;
1436;SDS011;712;51.026;13.792;2023-07-29T07:39:26;2.23;;;0.90;;
1436;SDS011;712;51.026;13.792;2023-07-29T07:41:51;2.40;;;1.07;;
1436;SDS011;712;51.026;13.792;2023-07-29T07:44:16;2.77;;;1.00;;
1436;SDS011;712;51.026;13.792;2023-07-29T07:46:43;2.25;;;0.80;;
1436;SDS011;712;51.026;13.792;2023-07-29T07:49:08;2.50;;;0.90;;
1436;SDS011;712;51.026;13.792;2023-07-29T07:51:33;1.85;;;0.82;;
1436;SDS011;712;51.026;13.792;2023-07-29T07:56:23;2.15;;;0.85;;
1436;SDS011;712;51.026;13.792;2023-07-29T07:58:48;2.77;;;1.00;;
1436;SDS011;712;51.026;13.792;2023-07-29T08:01:13;2.70;;;0.97;;
1436;SDS011;712;51.026;13.792;2023-07-29T08:06:04;2.33;;;1.00;;
1436;SDS011;712;51.026;13.792;2023-07-29T08:08:29;2.10;;;0.90;;
1436;SDS011;712;51.026;13.792;2023-07-29T08:13:20;1.90;;;0.87;;
1436;SDS011;712;51.026;13.792;2023-07-29T08:18:10;1.83;;;0.75;;
1436;SDS011;712;51.026;13.792;2023-07-29T08:20:35;1.80;;;0.88;;
1436;SDS011;712;51.026;13.792;2023-07-29T08:23:00;2.30;;;0.90;;
1436;SDS011;712;51.026;13.792;2023-07-29T08:25:25;1.77;;;0.70;;
1436;SDS011;712;51.026;13.792;2023-07-29T08:27:50;1.60;;;0.60;;
1436;SDS011;712;51.026;13.792;2023-07-29T08:32:41;1.50;;;0.60;;
1436;SDS011;712;51.026;13.792;2023-07-29T08:35:06;1.40;;;0.60;;
1436;SDS011;712;51.026;13.792;2023-07-29T08:37:32;1.23;;;0.60;;
1436;SDS011;712;51.026;13.792;2023-07-29T08:39:57;1.87;;;0.67;;
1436;SDS011;712;51.026;13.792;2023-07-29T08:42:22;2.15;;;0.80;;
1436;SDS011;712;51.026;13.792;2023-07-29T08:47:13;1.40;;;0.70;;
1436;SDS011;712;51.026;13.792;2023-07-29T08:49:38;1.90;;;0.70;;
1436;SDS011;712;51.026;13.792;2023-07-29T08:52:04;1.55;;;0.60;;
1436;SDS011;712;51.026;13.792;2023-07-29T08:54:29;1.63;;;0.60;;
1436;SDS011;712;51.026;13.792;2023-07-29T08:56:55;1.40;;;0.63;;
1436;SDS011;712;51.026;13.792;2023-07-29T08:59:20;3.63;;;0.80;;
1436;SDS011;712;51.026;13.792;2023-07-29T09:04:10;1.77;;;0.70;;
1436;SDS011;712;51.026;13.792;2023-07-29T09:09:00;2.03;;;0.80;;
1436;SDS011;712;51.026;13.792;2023-07-29T09:13:51;1.90;;;0.75;;
1436;SDS011;712;51.026;13.792;2023-07-29T09:18:41;1.83;;;0.80;;
1436;SDS011;712;51.026;13.792;2023-07-29T09:23:44;2.72;;;1.00;;
1436;SDS011;712;51.026;13.792;2023-07-29T09:26:09;2.85;;;0.98;;
1436;SDS011;712;51.026;13.792;2023-07-29T09:31:00;2.70;;;1.10;;
1436;SDS011;712;51.026;13.792;2023-07-29T09:35:50;2.65;;;1.00;;
1436;SDS011;712;51.026;13.792;2023-07-29T09:40:41;3.27;;;1.00;;
1436;SDS011;712;51.026;13.792;2023-07-29T09:45:32;2.47;;;0.90;;
1436;SDS011;712;51.026;13.792;2023-07-29T09:47:58;2.50;;;1.08;;
1436;SDS011;712;51.026;13.792;2023-07-29T09:52:50;3.03;;;1.13;;
1436;SDS011;712;51.026;13.792;2023-07-29T09:55:19;2.08;;;0.80;;
1436;SDS011;712;51.026;13.792;2023-07-29T09:57:45;3.15;;;1.00;;
1436;SDS011;712;51.026;13.792;2023-07-29T10:02:36;3.30;;;0.90;;
1436;SDS011;712;51.026;13.792;2023-07-29T10:05:02;2.42;;;0.98;;
1436;SDS011;712;51.026;13.792;2023-07-29T10:07:28;2.20;;;0.82;;
1436;SDS011;712;51.026;13.792;2023-07-29T10:12:19;1.92;;;0.80;;
1436;SDS011;712;51.026;13.792;2023-07-29T10:14:45;4.00;;;0.93;;
1436;SDS011;712;51.026;13.792;2023-07-29T10:17:11;3.25;;;1.00;;
1436;SDS011;712;51.026;13.792;2023-07-29T10:19:36;3.33;;;1.20;;
1436;SDS011;712;51.026;13.792;2023-07-29T10:22:02;1.80;;;0.80;;
1436;SDS011;712;51.026;13.792;2023-07-29T10:24:29;2.25;;;0.90;;
1436;SDS011;712;51.026;13.792;2023-07-29T10:26:59;2.50;;;1.00;;
1436;SDS011;712;51.026;13.792;2023-07-29T10:29:24;3.33;;;0.98;;
1436;SDS011;712;51.026;13.792;2023-07-29T10:31:53;2.33;;;0.90;;
1436;SDS011;712;51.026;13.792;2023-07-29T10:34:20;2.50;;;0.80;;
1436;SDS011;712;51.026;13.792;2023-07-29T10:36:46;2.80;;;0.90;;
1436;SDS011;712;51.026;13.792;2023-07-29T10:39:12;2.17;;;0.88;;
1436;SDS011;712;51.026;13.792;2023-07-29T10:49:59;2.85;;;0.80;;
1436;SDS011;712;51.026;13.792;2023-07-29T10:54:59;2.67;;;1.00;;
1436;SDS011;712;51.026;13.792;2023-07-29T10:59:55;2.47;;;1.05;;
1436;SDS011;712;51.026;13.792;2023-07-29T11:04:52;2.45;;;1.00;;
1436;SDS011;712;51.026;13.792;2023-07-29T11:07:19;3.33;;;1.17;;
1436;SDS011;712;51.026;13.792;2023-07-29T11:14:57;2.85;;;0.98;;
1436;SDS011;712;51.026;13.792;2023-07-29T11:19:47;3.15;;;0.80;;
1436;SDS011;712;51.026;13.792;2023-07-29T11:22:14;3.55;;;1.08;;
1436;SDS011;712;51.026;13.792;2023-07-29T11:24:43;4.93;;;1.10;;
1436;SDS011;712;51.026;13.792;2023-07-29T11:27:11;3.10;;;0.85;;
1436;SDS011;712;51.026;13.792;2023-07-29T11:29:36;3.95;;;0.90;;
1436;SDS011;712;51.026;13.792;2023-07-29T11:34:32;4.65;;;0.90;;
1436;SDS011;712;51.026;13.792;2023-07-29T11:36:58;4.07;;;1.00;;
1436;SDS011;712;51.026;13.792;2023-07-29T11:41:48;3.42;;;1.17;;
1436;SDS011;712;51.026;13.792;2023-07-29T11:46:38;1.95;;;0.80;;
1436;SDS011;712;51.026;13.792;2023-07-29T11:49:04;3.35;;;0.82;;
1436;SDS011;712;51.026;13.792;2023-07-29T11:53:54;2.22;;;0.80;;
1436;SDS011;712;51.026;13.792;2023-07-29T11:56:19;3.23;;;1.00;;
1436;SDS011;712;51.026;13.792;2023-07-29T12:01:10;2.17;;;0.80;;
1436;SDS011;712;51.026;13.792;2023-07-29T12:03:35;2.20;;;0.88;;
1436;SDS011;712;51.026;13.792;2023-07-29T12:08:25;2.25;;;0.90;;
1436;SDS011;712;51.026;13.792;2023-07-29T12:13:16;4.72;;;1.05;;
1436;SDS011;712;51.026;13.792;2023-07-29T12:18:06;3.30;;;1.00;;
1436;SDS011;712;51.026;13.792;2023-07-29T12:22:57;4.45;;;1.10;;
1436;SDS011;712;51.026;13.792;2023-07-29T12:25:22;3.90;;;1.00;;
1436;SDS011;712;51.026;13.792;2023-07-29T12:30:13;5.07;;;1.00;;
1436;SDS011;712;51.026;13.792;2023-07-29T12:35:04;4.43;;;0.93;;
1436;SDS011;712;51.026;13.792;2023-07-29T12:37:34;3.03;;;0.93;;
1436;SDS011;712;51.026;13.792;2023-07-29T12:42:24;4.38;;;1.15;;
1436;SDS011;712;51.026;13.792;2023-07-29T12:44:49;2.33;;;0.90;;
1436;SDS011;712;51.026;13.792;2023-07-29T12:49:39;2.20;;;0.82;;
1436;SDS011;712;51.026;13.792;2023-07-29T12:54:30;3.90;;;0.80;;
1436;SDS011;712;51.026;13.792;2023-07-29T12:59:20;2.30;;;0.80;;
1436;SDS011;712;51.026;13.792;2023-07-29T13:04:10;4.50;;;0.90;;
1436;SDS011;712;51.026;13.792;2023-07-29T13:09:01;4.05;;;0.90;;
1436;SDS011;712;51.026;13.792;2023-07-29T13:11:26;4.33;;;0.90;;
1436;SDS011;712;51.026;13.792;2023-07-29T13:16:16;1.88;;;0.73;;
1436;SDS011;712;51.026;13.792;2023-07-29T13:18:42;2.65;;;0.90;;
1436;SDS011;712;51.026;13.792;2023-07-29T13:21:08;3.72;;;0.82;;
1436;SDS011;712;51.026;13.792;2023-07-29T13:25:58;2.88;;;0.90;;
1436;SDS011;712;51.026;13.792;2023-07-29T13:30:48;2.17;;;0.90;;
1436;SDS011;712;51.026;13.792;2023-07-29T13:33:13;2.30;;;0.80;;
1436;SDS011;712;51.026;13.792;2023-07-29T13:38:04;3.80;;;0.73;;
1436;SDS011;712;51.026;13.792;2023-07-29T13:42:54;2.38;;;0.90;;
1436;SDS011;712;51.026;13.792;2023-07-29T13:47:45;2.08;;;0.77;;
1436;SDS011;712;51.026;13.792;2023-07-29T13:50:10;3.95;;;0.90;;
1436;SDS011;712;51.026;13.792;2023-07-29T13:55:00;2.72;;;0.75;;
1436;SDS011;712;51.026;13.792;2023-07-29T13:59:50;2.60;;;0.80;;
1436;SDS011;712;51.026;13.792;2023-07-29T14:04:41;1.85;;;0.73;;
1436;SDS011;712;51.026;13.792;2023-07-29T14:09:31;2.05;;;0.90;;
1436;SDS011;712;51.026;13.792;2023-07-29T14:14:21;2.85;;;0.80;;
1436;SDS011;712;51.026;13.792;2023-07-29T14:19:12;2.50;;;0.87;;
1436;SDS011;712;51.026;13.792;2023-07-29T14:24:02;1.88;;;0.73;;
1436;SDS011;712;51.026;13.792;2023-07-29T14:28:52;2.25;;;0.85;;
1436;SDS011;712;51.026;13.792;2023-07-29T14:31:17;2.13;;;0.73;;
1436;SDS011;712;51.026;13.792;2023-07-29T14:36:08;3.45;;;0.80;;
1436;SDS011;712;51.026;13.792;2023-07-29T14:38:33;5.40;;;0.70;;
1436;SDS011;712;51.026;13.792;2023-07-29T14:40:58;1.93;;;0.73;;
1436;SDS011;712;51.026;13.792;2023-07-29T14:43:23;2.30;;;0.73;;
1436;SDS011;712;51.026;13.792;2023-07-29T14:48:14;1.63;;;0.60;;
1436;SDS011;712;51.026;13.792;2023-07-29T14:50:39;2.67;;;0.90;;
1436;SDS011;712;51.026;13.792;2023-07-29T14:55:29;2.13;;;0.70;;
1436;SDS011;712;51.026;13.792;2023-07-29T15:00:19;3.53;;;0.90;;
1436;SDS011;712;51.026;13.792;2023-07-29T15:02:44;2.35;;;0.70;;
1436;SDS011;712;51.026;13.792;2023-07-29T15:07:35;2.40;;;0.68;;
1436;SDS011;712;51.026;13.792;2023-07-29T15:10:00;1.92;;;0.80;;
1436;SDS011;712;51.026;13.792;2023-07-29T15:14:50;2.40;;;0.90;;
1436;SDS011;712;51.026;13.792;2023-07-29T15:19:40;2.33;;;0.85;;
1436;SDS011;712;51.026;13.792;2023-07-29T15:24:31;2.80;;;0.80;;
1436;SDS011;712;51.026;13.792;2023-07-29T15:29:21;2.33;;;0.75;;
1436;SDS011;712;51.026;13.792;2023-07-29T15:34:11;1.98;;;0.75;;
1436;SDS011;712;51.026;13.792;2023-07-29T15:39:02;2.85;;;0.90;;
1436;SDS011;712;51.026;13.792;2023-07-29T15:43:52;3.08;;;0.90;;
1436;SDS011;712;51.026;13.792;2023-07-29T15:46:19;3.08;;;0.80;;
1436;SDS011;712;51.026;13.792;2023-07-29T15:51:09;2.08;;;0.75;;
1436;SDS011;712;51.026;13.792;2023-07-29T15:56:00;2.08;;;0.75;;
1436;SDS011;712;51.026;13.792;2023-07-29T16:00:50;2.87;;;1.03;;
1436;SDS011;712;51.026;13.792;2023-07-29T16:05:40;2.30;;;0.90;;
1436;SDS011;712;51.026;13.792;2023-07-29T16:10:31;2.70;;;0.90;;
1436;SDS011;712;51.026;13.792;2023-07-29T16:15:21;2.77;;;0.90;;
1436;SDS011;712;51.026;13.792;2023-07-29T16:17:46;3.73;;;1.37;;
1436;SDS011;712;51.026;13.792;2023-07-29T16:20:16;2.72;;;0.90;;
1436;SDS011;712;51.026;13.792;2023-07-29T16:25:06;2.65;;;0.98;;
1436;SDS011;712;51.026;13.792;2023-07-29T16:29:58;3.17;;;1.10;;
1436;SDS011;712;51.026;13.792;2023-07-29T16:32:24;2.83;;;0.90;;
1436;SDS011;712;51.026;13.792;2023-07-29T16:34:49;2.53;;;1.00;;
1436;SDS011;712;51.026;13.792;2023-07-29T16:39:40;5.32;;;1.48;;
1436;SDS011;712;51.026;13.792;2023-07-29T16:42:05;3.17;;;0.97;;
1436;SDS011;712;51.026;13.792;2023-07-29T16:46:55;5.18;;;1.10;;
1436;SDS011;712;51.026;13.792;2023-07-29T16:49:21;4.17;;;1.00;;
1436;SDS011;712;51.026;13.792;2023-07-29T16:54:11;5.57;;;0.93;;
1436;SDS011;712;51.026;13.792;2023-07-29T16:56:36;4.37;;;0.97;;
1436;SDS011;712;51.026;13.792;2023-07-29T16:59:01;3.40;;;0.93;;
1436;SDS011;712;51.026;13.792;2023-07-29T17:01:26;3.93;;;1.10;;
1436;SDS011;712;51.026;13.792;2023-07-29T17:03:52;4.27;;;1.20;;
1436;SDS011;712;51.026;13.792;2023-07-29T17:06:17;4.68;;;1.20;;
1436;SDS011;712;51.026;13.792;2023-07-29T17:08:42;6.30;;;1.20;;
1436;SDS011;712;51.026;13.792;2023-07-29T17:11:07;5.93;;;1.70;;
1436;SDS011;712;51.026;13.792;2023-07-29T17:13:33;7.93;;;1.50;;
1436;SDS011;712;51.026;13.792;2023-07-29T17:15:58;7.50;;;1.83;;
1436;SDS011;712;51.026;13.792;2023-07-29T17:18:23;6.47;;;1.30;;
1436;SDS011;712;51.026;13.792;2023-07-29T17:20:48;5.00;;;1.43;;
1436;SDS011;712;51.026;13.792;2023-07-29T17:23:14;4.90;;;1.70;;
1436;SDS011;712;51.026;13.792;2023-07-29T17:25:39;4.17;;;1.30;;
1436;SDS011;712;51.026;13.792;2023-07-29T17:28:04;5.77;;;1.60;;
1436;SDS011;712;51.026;13.792;2023-07-29T17:30:31;5.38;;;1.73;;
1436;SDS011;712;51.026;13.792;2023-07-29T17:32:57;5.10;;;1.90;;
1436;SDS011;712;51.026;13.792;2023-07-29T17:35:22;6.07;;;2.20;;
1436;SDS011;712;51.026;13.792;2023-07-29T17:37:47;6.50;;;3.40;;
1436;SDS011;712;51.026;13.792;2023-07-29T17:40:12;6.77;;;2.20;;
1436;SDS011;712;51.026;13.792;2023-07-29T17:42:38;5.68;;;2.10;;
1436;SDS011;712;51.026;13.792;2023-07-29T17:45:04;7.30;;;2.25;;
1436;SDS011;712;51.026;13.792;2023-07-29T17:47:29;7.10;;;2.72;;
1436;SDS011;712;51.026;13.792;2023-07-29T17:49:54;5.57;;;2.10;;
1436;SDS011;712;51.026;13.792;2023-07-29T17:52:19;5.67;;;1.87;;
1436;SDS011;712;51.026;13.792;2023-07-29T17:54:45;5.17;;;1.80;;
1436;SDS011;712;51.026;13.792;2023-07-29T17:57:10;5.07;;;1.73;;
1436;SDS011;712;51.026;13.792;2023-07-29T17:59:35;4.67;;;1.80;;
1436;SDS011;712;51.026;13.792;2023-07-29T18:02:00;4.70;;;1.83;;
1436;SDS011;712;51.026;13.792;2023-07-29T18:04:26;5.23;;;1.60;;
1436;SDS011;712;51.026;13.792;2023-07-29T18:06:51;5.83;;;2.00;;
1436;SDS011;712;51.026;13.792;2023-07-29T18:09:16;5.13;;;1.80;;
1436;SDS011;712;51.026;13.792;2023-07-29T18:11:41;8.33;;;2.23;;
1436;SDS011;712;51.026;13.792;2023-07-29T18:14:07;5.20;;;1.97;;
1436;SDS011;712;51.026;13.792;2023-07-29T18:16:32;5.93;;;2.30;;
1436;SDS011;712;51.026;13.792;2023-07-29T18:18:57;6.55;;;2.10;;
1436;SDS011;712;51.026;13.792;2023-07-29T18:21:22;5.72;;;2.15;;
1436;SDS011;712;51.026;13.792;2023-07-29T18:23:47;5.60;;;2.50;;
1436;SDS011;712;51.026;13.792;2023-07-29T18:26:13;5.97;;;2.15;;
1436;SDS011;712;51.026;13.792;2023-07-29T18:28:38;7.03;;;2.60;;
1436;SDS011;712;51.026;13.792;2023-07-29T18:31:04;7.97;;;2.63;;
1436;SDS011;712;51.026;13.792;2023-07-29T18:33:29;6.83;;;2.33;;
1436;SDS011;712;51.026;13.792;2023-07-29T18:35:54;4.80;;;2.23;;
1436;SDS011;712;51.026;13.792;2023-07-29T18:38:19;6.80;;;2.77;;
1436;SDS011;712;51.026;13.792;2023-07-29T18:40:44;6.70;;;2.43;;
1436;SDS011;712;51.026;13.792;2023-07-29T18:43:10;5.30;;;2.47;;
1436;SDS011;712;51.026;13.792;2023-07-29T18:45:35;9.23;;;2.90;;
1436;SDS011;712;51.026;13.792;2023-07-29T18:48:00;5.13;;;2.60;;
1436;SDS011;712;51.026;13.792;2023-07-29T18:50:25;5.83;;;2.50;;
1436;SDS011;712;51.026;13.792;2023-07-29T18:52:50;6.63;;;2.27;;
1436;SDS011;712;51.026;13.792;2023-07-29T18:55:18;5.40;;;2.53;;
1436;SDS011;712;51.026;13.792;2023-07-29T18:57:44;7.43;;;2.27;;
1436;SDS011;712;51.026;13.792;2023-07-29T19:00:09;6.40;;;2.37;;
1436;SDS011;712;51.026;13.792;2023-07-29T19:02:34;5.18;;;2.53;;